Terminal Aerodrome Forecast
Issued by NWS

Home | Current Version | Previous Version | Text Only | Print | Product List | Glossary On
Versions: 1 2 3 4 5 6 7 8 9 10 11 12 13 14 15 16
321
FTUS43 KEAX 131130
TAFSTJ
TAF
KSTJ 131130Z 1312/1412 07010KT P6SM BKN100
     FM131400 11012KT P6SM OVC060
     FM140800 16012G20KT P6SM VCSH BKN025=

USA.gov is the U.S. government's official web portal to all federal, state and local government web resources and services.